createdAt,value
2019-01-14T00:09:10.147Z,96764.14
2019-01-14T00:11:41.443Z,96746.78
2019-01-14T00:14:32.532Z,96739.28
2019-01-14T00:17:05.680Z,96711.59
2019-01-14T00:22:43.830Z,96756.16
2019-01-14T00:25:21.318Z,96752.23
2019-01-14T00:28:11.962Z,96751.89
2019-01-14T00:30:54.430Z,96806.87
2019-01-14T00:36:29.273Z,96772.02
2019-01-14T00:39:39.029Z,96812.52
2019-01-14T00:45:23.429Z,96858.70
2019-01-14T00:50:56.982Z,96870.10
2019-01-14T00:53:28.328Z,96906.03
2019-01-14T00:56:19.063Z,96898.39
2019-01-14T00:58:50.482Z,96915.94
2019-01-14T01:01:40.982Z,96925.23
2019-01-14T01:04:12.355Z,96917.80
2019-01-14T01:06:43.574Z,96944.98
2019-01-14T01:09:34.174Z,96946.83
2019-01-14T01:12:43.923Z,96950.75
2019-01-14T01:15:34.667Z,96957.53
2019-01-14T01:18:25.281Z,96969.86
2019-01-14T01:21:17.829Z,96974.73
2019-01-14T01:23:49.508Z,96604.17
2019-01-14T01:26:53.241Z,97004.77
2019-01-14T01:29:43.678Z,96981.55
2019-01-14T01:32:34.125Z,96973.44
2019-01-14T01:35:24.782Z,96989.94
2019-01-14T01:37:56.194Z,96965.89
2019-01-14T01:40:34.817Z,96937.30
2019-01-14T01:43:25.626Z,96933.27
2019-01-14T01:46:16.259Z,96928.90
2019-01-14T01:48:47.546Z,96923.39
2019-01-14T01:57:04.740Z,96915.40
2019-01-14T01:59:36.051Z,96928.33
2019-01-14T02:05:29.140Z,96948.02
2019-01-14T02:08:19.762Z,96960.97
2019-01-14T02:10:51.128Z,96933.92
2019-01-14T02:13:41.769Z,96960.39
2019-01-14T02:17:02.867Z,96963.75
2019-01-14T02:19:34.177Z,96979.50
2019-01-14T02:22:05.513Z,96983.34
2019-01-14T02:24:56.179Z,96974.94
2019-01-14T02:27:27.781Z,96960.86
2019-01-14T02:33:22.426Z,96995.72
2019-01-14T02:35:53.826Z,97001.30
2019-01-14T02:38:25.182Z,97008.13
2019-01-14T02:40:56.435Z,97012.70
2019-01-14T02:43:27.747Z,97016.62
2019-01-14T02:49:01.481Z,97005.25
2019-01-14T02:51:32.763Z,96997.78
2019-01-14T02:54:23.085Z,96997.02
2019-01-14T02:56:59.811Z,97007.97
2019-01-14T02:59:31.036Z,97013.56
2019-01-14T03:02:21.707Z,96996.28
2019-01-14T03:04:53.048Z,96999.73
2019-01-14T03:07:43.808Z,96998.78
2019-01-14T03:10:34.221Z,97006.05
2019-01-14T03:13:24.803Z,97006.52
2019-01-14T03:16:15.422Z,97002.12
2019-01-14T03:21:49.465Z,97005.14
2019-01-14T03:24:40.551Z,97001.47
2019-01-14T03:27:31.488Z,96994.72
2019-01-14T03:30:22.108Z,97008.28
2019-01-14T03:32:53.374Z,97011.62
2019-01-14T03:38:47.055Z,97023.95
2019-01-14T03:41:30.607Z,96997.34
2019-01-14T03:46:47.025Z,97000.43
2019-01-14T03:49:37.626Z,96998.03
2019-01-14T03:55:22.714Z,97008.11
2019-01-14T04:00:57.014Z,97009.81
2019-01-14T04:03:28.281Z,97001.70
2019-01-14T04:05:59.572Z,97019.13
2019-01-14T04:08:30.819Z,97019.77
2019-01-14T04:11:02.083Z,97029.56
2019-01-14T04:13:33.338Z,97028.92
2019-01-14T04:16:25.647Z,97029.57
2019-01-14T04:21:58.926Z,97008.64
2019-01-14T04:24:30.195Z,97017.61
2019-01-14T04:27:20.787Z,97019.28
2019-01-14T04:29:52.163Z,97025.17
2019-01-14T04:32:23.504Z,97022.35
2019-01-14T04:34:55.058Z,97014.23
2019-01-14T04:37:26.348Z,97020.77
2019-01-14T04:40:36.091Z,97013.08
2019-01-14T04:43:26.771Z,97029.16
2019-01-14T04:46:17.332Z,97046.25
2019-01-14T04:49:07.922Z,97050.98
2019-01-14T04:51:44.566Z,97037.46
2019-01-14T04:56:59.426Z,97041.93
2019-01-14T05:02:52.386Z,97036.80
2019-01-14T05:05:42.959Z,97047.73
2019-01-14T05:08:14.218Z,97041.91
2019-01-14T05:10:45.444Z,97045.55
2019-01-14T05:18:43.134Z,97049.81
2019-01-14T05:21:33.757Z,97062.16
2019-01-14T05:27:07.478Z,97057.20
2019-01-14T05:29:58.124Z,97055.31
2019-01-14T05:32:48.729Z,97073.34
2019-01-14T05:35:20.071Z,97053.67
2019-01-14T05:40:34.085Z,97082.98
2019-01-14T05:43:05.335Z,97079.70
2019-01-14T05:45:55.947Z,97076.27
2019-01-14T05:48:27.158Z,97080.58
2019-01-14T05:51:03.957Z,97106.70
2019-01-14T05:53:37.205Z,97108.03
2019-01-14T05:59:10.199Z,97111.39
2019-01-14T06:02:00.873Z,97118.86
2019-01-14T06:04:32.117Z,96958.34
2019-01-14T06:07:22.783Z,97100.48
2019-01-14T06:09:59.511Z,97125.88
2019-01-14T06:15:32.840Z,97123.34
2019-01-14T06:18:23.448Z,97113.75
2019-01-14T06:21:14.051Z,97122.14
2019-01-14T06:24:04.713Z,97118.96
2019-01-14T06:35:17.307Z,97160.23
2019-01-14T06:37:52.556Z,97182.27
2019-01-14T06:43:22.397Z,97188.80
2019-01-14T06:48:36.518Z,97209.97
2019-01-14T06:51:26.944Z,97227.24
2019-01-14T06:53:58.223Z,97235.91
2019-01-14T06:56:48.831Z,97244.77
2019-01-14T06:59:41.005Z,97261.12
2019-01-14T07:02:41.248Z,97259.02
2019-01-14T07:16:30.241Z,97302.69
2019-01-14T07:19:01.510Z,97303.55
2019-01-14T07:24:45.966Z,97321.55
2019-01-14T07:27:55.830Z,97316.47
2019-01-14T07:30:46.445Z,97330.11
2019-01-14T07:33:17.668Z,97336.56
2019-01-14T07:38:51.653Z,97341.43
2019-01-14T07:41:42.349Z,97370.38
2019-01-14T07:44:13.577Z,97373.00
2019-01-14T07:52:10.202Z,97387.67
2019-01-14T07:57:44.170Z,97388.98
2019-01-14T08:00:34.792Z,97379.84
2019-01-14T08:08:50.357Z,97409.46
2019-01-14T08:11:32.272Z,97418.91
2019-01-14T08:14:03.581Z,97432.34
2019-01-14T08:16:34.891Z,97403.01
2019-01-14T08:19:16.858Z,97426.98
2019-01-14T08:22:07.429Z,97430.18
2019-01-14T08:24:38.814Z,97444.11
2019-01-14T08:30:24.539Z,97442.05
2019-01-14T08:32:55.880Z,97446.05
2019-01-14T08:35:27.183Z,97444.40
2019-01-14T08:38:21.347Z,97447.17
2019-01-14T08:49:21.175Z,97474.54
2019-01-14T08:54:35.401Z,97471.77
2019-01-14T08:57:26.001Z,97459.05
2019-01-14T08:59:57.299Z,97478.95
2019-01-14T09:02:28.557Z,97499.80
2019-01-14T09:05:19.334Z,97471.13
2019-01-14T09:07:50.565Z,97500.47
2019-01-14T09:10:40.832Z,97486.30
2019-01-14T09:13:31.431Z,97508.39
2019-01-14T09:16:22.045Z,97512.77
2019-01-14T09:18:53.357Z,97488.38
2019-01-14T09:21:24.640Z,97509.88
2019-01-14T09:24:15.268Z,97475.52
2019-01-14T09:26:46.552Z,97515.11
2019-01-14T09:29:37.184Z,97484.21
2019-01-14T09:32:27.873Z,97538.78
2019-01-14T09:35:18.498Z,97484.06
2019-01-14T09:40:55.470Z,97531.97
2019-01-14T09:46:09.412Z,97553.86
2019-01-14T09:48:52.106Z,97549.56
2019-01-14T09:51:23.342Z,97537.79
2019-01-14T09:54:13.939Z,97549.41
2019-01-14T09:59:28.324Z,97546.55
2019-01-14T10:02:12.332Z,97537.88
2019-01-14T10:07:26.930Z,97546.58
2019-01-14T10:10:18.368Z,97557.09
2019-01-14T10:12:49.885Z,97571.03
2019-01-14T10:15:40.279Z,97584.50
2019-01-14T10:18:11.684Z,97592.48
2019-01-14T10:20:42.899Z,97597.53
2019-01-14T10:23:44.130Z,97625.05
2019-01-14T10:28:59.643Z,97636.80
2019-01-14T10:34:32.753Z,97636.67
2019-01-14T10:37:03.979Z,97633.44
2019-01-14T10:39:35.326Z,97645.06
2019-01-14T10:42:25.888Z,97662.34
2019-01-14T10:45:16.241Z,97649.30
2019-01-14T10:48:07.057Z,97672.28
2019-01-14T10:50:57.711Z,97650.59
2019-01-14T11:02:17.032Z,97654.64
2019-01-14T11:07:35.114Z,97643.51
2019-01-14T11:10:17.617Z,97641.02
2019-01-14T11:13:00.343Z,97638.70
2019-01-14T11:15:32.494Z,97628.33
2019-01-14T11:18:04.032Z,97626.36
2019-01-14T11:20:35.272Z,97628.14
2019-01-14T11:23:26.213Z,97628.21
2019-01-14T11:26:36.123Z,97627.78
2019-01-14T11:29:57.298Z,97633.77
2019-01-14T11:35:23.267Z,97619.72
2019-01-14T11:37:54.544Z,97632.70
2019-01-14T11:40:32.141Z,97628.44
2019-01-14T11:43:03.376Z,97639.50
2019-01-14T11:45:46.901Z,97623.98
2019-01-14T11:48:18.129Z,97639.13
2019-01-14T11:51:09.322Z,97634.27
2019-01-14T11:54:00.825Z,97631.79
2019-01-14T11:56:32.079Z,97616.11
2019-01-14T11:59:03.336Z,97604.78
2019-01-14T12:01:34.573Z,97621.23
2019-01-14T12:04:25.276Z,97629.87
2019-01-14T12:07:34.969Z,97610.80
2019-01-14T12:10:16.309Z,97625.34
2019-01-14T12:13:07.223Z,97627.20
2019-01-14T12:15:57.848Z,97618.45
2019-01-14T12:18:48.653Z,97628.27
2019-01-14T12:24:36.017Z,97652.86
2019-01-14T12:27:26.673Z,97658.91
2019-01-14T12:30:34.785Z,97651.83
2019-01-14T12:36:09.535Z,97674.56
2019-01-14T12:38:40.800Z,97663.38
2019-01-14T12:41:12.455Z,97667.20
2019-01-14T12:47:21.546Z,97664.48
2019-01-14T12:49:53.762Z,97650.23
2019-01-14T12:55:26.175Z,97654.54
2019-01-14T13:01:07.216Z,97648.55
2019-01-14T13:03:40.292Z,97653.34
2019-01-14T13:06:42.663Z,97647.16
2019-01-14T13:09:14.055Z,97656.22
2019-01-14T13:12:15.301Z,97625.00
2019-01-14T13:14:46.790Z,97637.28
2019-01-14T13:20:16.464Z,97639.70
2019-01-14T13:22:47.910Z,97631.36
2019-01-14T13:25:31.490Z,97655.34
2019-01-14T13:31:25.286Z,97666.28
2019-01-14T13:34:36.818Z,97656.08
2019-01-14T13:39:52.685Z,97650.70
2019-01-14T13:42:36.415Z,97665.14
2019-01-14T13:45:19.232Z,97675.59
2019-01-14T13:50:55.247Z,97681.73
2019-01-14T13:53:26.685Z,97696.72
2019-01-14T13:55:59.502Z,97693.56
2019-01-14T13:58:40.326Z,97690.13
2019-01-14T14:01:32.737Z,97703.62
2019-01-14T14:04:16.480Z,97697.58
2019-01-14T14:06:47.729Z,97705.17
2019-01-14T14:09:24.709Z,97704.48
2019-01-14T14:12:15.358Z,97703.56
2019-01-14T14:15:18.899Z,97705.63
2019-01-14T14:17:52.509Z,97701.50
2019-01-14T14:20:30.580Z,97709.64
2019-01-14T14:26:04.701Z,97708.48
2019-01-14T14:28:35.938Z,97717.00
2019-01-14T14:31:07.229Z,97715.45
2019-01-14T14:33:38.476Z,97730.23
2019-01-14T14:36:29.057Z,97737.14
2019-01-14T14:48:29.987Z,97739.27
2019-01-14T14:53:45.425Z,97747.77
2019-01-14T14:56:16.797Z,97758.48
2019-01-14T15:01:51.087Z,97769.45
2019-01-14T15:04:24.944Z,97751.97
2019-01-14T15:07:15.648Z,97773.40
2019-01-14T15:10:17.442Z,97780.89
2019-01-14T15:19:19.535Z,97820.81
2019-01-14T15:21:51.156Z,97817.83
2019-01-14T15:24:22.804Z,97834.94
2019-01-14T15:27:24.394Z,97828.37
2019-01-14T15:29:55.640Z,97832.91
2019-01-14T15:32:27.069Z,97849.67
2019-01-14T15:35:28.139Z,97832.06
2019-01-14T15:37:59.590Z,97839.71
2019-01-14T15:40:52.552Z,97844.80
2019-01-14T15:43:43.358Z,97832.48
2019-01-14T15:46:45.025Z,97840.44
2019-01-14T15:49:35.484Z,97843.55
2019-01-14T15:58:18.167Z,97866.16
2019-01-14T16:00:49.396Z,97865.56
2019-01-14T16:03:40.261Z,97899.45
2019-01-14T16:08:54.333Z,97923.72
2019-01-14T16:11:44.953Z,97933.61
2019-01-14T16:14:35.842Z,97946.78
2019-01-14T16:17:27.601Z,97951.59
2019-01-14T16:20:20.122Z,97940.98
2019-01-14T16:34:04.488Z,97945.25
2019-01-14T16:36:35.913Z,97946.46
2019-01-14T16:39:13.641Z,97901.91
2019-01-14T16:41:47.137Z,97960.09
2019-01-14T16:50:51.078Z,97949.46
2019-01-14T16:53:41.770Z,97967.17
2019-01-14T16:56:32.345Z,97948.48
2019-01-14T17:02:35.624Z,97963.39
2019-01-14T17:05:17.987Z,97973.48
2019-01-14T17:07:49.492Z,97989.52
2019-01-14T17:10:25.132Z,97999.95
2019-01-14T17:13:24.618Z,97994.89
2019-01-14T17:16:15.292Z,98018.80
2019-01-14T17:18:46.548Z,98007.02
2019-01-14T17:21:17.845Z,98025.25
2019-01-14T17:24:47.354Z,98050.85
2019-01-14T17:27:29.428Z,98026.14
2019-01-14T17:33:05.783Z,98054.64
2019-01-14T17:35:42.733Z,98065.52
2019-01-14T17:38:54.125Z,98071.47
2019-01-14T17:47:28.360Z,98099.19
2019-01-14T17:50:29.705Z,98096.78
2019-01-14T17:53:11.944Z,98119.39
2019-01-14T17:55:44.160Z,98115.29
2019-01-14T18:01:38.967Z,98122.97
2019-01-14T18:04:30.981Z,98110.73
2019-01-14T18:07:05.120Z,98132.15
2019-01-14T18:09:36.448Z,98136.67
2019-01-14T18:18:34.170Z,98146.80
2019-01-14T18:21:13.242Z,98096.86
2019-01-14T18:26:49.724Z,98151.49
2019-01-14T18:29:59.460Z,98164.50
2019-01-14T18:32:50.812Z,98162.80
2019-01-14T18:41:10.446Z,98162.25
2019-01-14T18:44:14.668Z,98174.53
2019-01-14T18:46:53.547Z,98191.91
2019-01-14T18:52:49.176Z,98255.08
2019-01-14T18:59:10.352Z,98279.28
2019-01-14T19:01:44.184Z,98257.98
2019-01-14T19:04:17.796Z,98273.70
2019-01-14T19:06:50.904Z,98263.70
2019-01-14T19:09:42.823Z,98266.56
2019-01-14T19:12:14.589Z,98267.71
2019-01-14T19:15:20.496Z,98279.97
2019-01-14T19:21:07.682Z,98240.56
2019-01-14T19:23:58.539Z,98275.68
2019-01-14T19:26:37.258Z,98280.84
2019-01-14T19:29:11.268Z,98283.06
2019-01-14T19:37:50.142Z,98301.25
2019-01-14T19:40:43.100Z,98331.89
2019-01-14T19:43:15.061Z,98326.70
2019-01-14T19:46:25.564Z,98345.91
2019-01-14T19:49:19.076Z,98362.83
2019-01-14T19:51:54.564Z,98372.80
2019-01-14T19:54:26.350Z,98342.11
2019-01-14T19:57:17.053Z,98390.08
2019-01-14T20:00:29.535Z,98379.06
2019-01-14T20:03:01.025Z,98400.78
2019-01-14T20:05:32.530Z,98410.84
2019-01-14T20:10:46.062Z,98431.66
2019-01-14T20:22:04.706Z,98458.00
2019-01-14T20:24:36.044Z,98461.13
2019-01-14T20:30:31.748Z,98479.28
2019-01-14T20:33:03.072Z,98480.53
2019-01-14T20:35:53.654Z,98482.88
2019-01-14T20:38:44.277Z,98479.36
2019-01-14T20:41:54.082Z,98492.84
2019-01-14T20:50:16.161Z,98502.89
2019-01-14T20:52:47.500Z,98532.30
2019-01-14T20:55:18.763Z,98540.17
2019-01-14T21:01:16.154Z,98552.34
2019-01-14T21:07:30.029Z,98536.33
2019-01-14T21:10:23.158Z,98551.59
2019-01-14T21:12:54.586Z,98548.53
2019-01-14T21:15:45.352Z,98552.02
2019-01-14T21:18:34.209Z,98566.68
2019-01-14T21:21:05.511Z,98566.00
2019-01-14T21:23:58.411Z,98573.36
2019-01-14T21:26:29.749Z,98563.83
2019-01-14T21:29:20.478Z,98567.41
2019-01-14T21:32:14.434Z,98581.20
2019-01-14T21:43:59.996Z,98607.59
2019-01-14T21:46:50.667Z,98614.13
2019-01-14T21:49:23.971Z,98615.05
2019-01-14T21:52:14.663Z,98614.25
2019-01-14T21:55:16.709Z,98616.86
2019-01-14T21:57:48.118Z,98616.80
2019-01-14T22:00:38.912Z,98633.23
2019-01-14T22:03:29.597Z,98632.73
2019-01-14T22:08:42.908Z,98640.62
2019-01-14T22:11:38.812Z,98642.69
2019-01-14T22:14:37.645Z,98653.95
2019-01-14T22:17:30.071Z,98653.15
2019-01-14T22:20:52.197Z,98654.74
2019-01-14T22:29:18.234Z,98661.82
2019-01-14T22:35:21.699Z,98667.38
2019-01-14T22:37:54.842Z,98666.87
2019-01-14T22:40:31.925Z,98683.73
2019-01-14T22:43:04.311Z,98676.84
2019-01-14T22:46:05.539Z,98683.64
2019-01-14T22:48:36.810Z,98678.45
2019-01-14T22:51:27.442Z,98681.02
2019-01-14T22:54:18.087Z,98687.92
2019-01-14T22:57:08.685Z,98680.97
2019-01-14T23:02:24.032Z,98686.31
2019-01-14T23:05:17.736Z,98697.50
2019-01-14T23:10:53.934Z,98665.08
2019-01-14T23:16:37.941Z,98698.35
2019-01-14T23:19:09.254Z,98702.23
2019-01-14T23:32:52.907Z,98715.92
2019-01-14T23:35:43.509Z,98706.37
2019-01-14T23:38:53.199Z,98701.58
2019-01-14T23:41:43.628Z,98699.05
2019-01-14T23:44:34.340Z,98698.14
2019-01-14T23:47:24.910Z,98705.31
2019-01-14T23:50:16.272Z,98703.66
2019-01-14T23:58:23.969Z,98707.94
